DW2843 Hepworth UK current weather conditions

sailwx.info

Wind from 166 at 2 knots gusting 5

Air temperature 13.3° C
Dewpoint 12.6° C

Last reported at 2019-Sep-23 03:00 UTC.
Time now 2019-Sep-23 03:17 UTC

Location: N 52°20' E 000°55'.
View on Google Maps.

See reports from other nearby stations

  
Tides and Currents Weather Stations Pressure Air Temp Water Temp Dewpoint Dewpoint Depression Visibility Wind Speed Wind Dir Waves Ship Positions
date/time (UTC)wind fromknots sea level pressurealtimeterstation pressurevisibilityair tempwater tempwave heightnotes
2019-Sep-23 03:00 166 2 gusting 5 13.3
2019-Sep-23 02:50 166 3 gusting 5 13.3
2019-Sep-23 02:40 166 2 gusting 5 13.3
2019-Sep-23 02:30 166 2 gusting 6 13.9
2019-Sep-23 02:20 162 2 gusting 5 13.9
2019-Sep-23 02:10 166 2 gusting 5 13.9
2019-Sep-23 02:00 167 0 gusting 5 13.9
2019-Sep-23 01:50 158 2 gusting 5 13.9
2019-Sep-23 01:40 162 0 gusting 5 13.9
2019-Sep-23 01:30 161 2 gusting 5 14.4
2019-Sep-23 01:20 162 2 gusting 7 14.4
2019-Sep-23 01:10 164 3 gusting 6 14.4
2019-Sep-23 01:00 165 3 gusting 7 14.4
2019-Sep-23 00:50 167 3 gusting 8 14.4
2019-Sep-23 00:40 166 3 gusting 8 14.4
2019-Sep-23 00:30 167 3 gusting 8 14.4
2019-Sep-23 00:20 167 3 gusting 6 14.4
2019-Sep-23 00:10 166 2 gusting 5 13.9
2019-Sep-23 00:00 166 3 gusting 5 13.9
2019-Sep-22 23:50 168 3 gusting 6 13.9
2019-Sep-22 23:40 170 2 gusting 5 13.9
2019-Sep-22 23:30 166 3 gusting 6 14.4
2019-Sep-22 23:20 163 2 gusting 5 14.4
2019-Sep-22 23:10 165 2 gusting 6 14.4
2019-Sep-22 23:00 169 0 gusting 5 14.4
2019-Sep-22 22:50 175 2 gusting 5 14.4
2019-Sep-22 22:40 163 2 gusting 6 14.4
2019-Sep-22 22:30 164 2 gusting 6 14.4
2019-Sep-22 22:20 159 2 gusting 5 14.4
2019-Sep-22 22:10 163 2 gusting 6 15.0
2019-Sep-22 22:00 164 3 gusting 7 15.0
2019-Sep-22 21:50 169 3 gusting 6 15.0
2019-Sep-22 21:40 184 3 gusting 8 15.0
2019-Sep-22 21:30 176 3 gusting 8 15.6
2019-Sep-22 21:20 174 3 gusting 10 15.6
2019-Sep-22 21:10 175 5 gusting 10 15.6
2019-Sep-22 21:00 174 3 gusting 13 15.6
2019-Sep-22 20:50 176 3 gusting 11 15.6
2019-Sep-22 20:40 181 3 gusting 11 15.6
2019-Sep-22 20:30 175 3 gusting 8 15.6
2019-Sep-22 20:20 186 3 gusting 7 15.6
2019-Sep-22 20:10 176 3 gusting 6 15.6
2019-Sep-22 20:00 182 2 gusting 6 15.6
2019-Sep-22 19:50 169 3 gusting 6 15.6
2019-Sep-22 19:40 165 2 gusting 5 15.6
2019-Sep-22 19:30 174 0 gusting 5 16.1
2019-Sep-22 19:20 165 2 gusting 5 16.1
2019-Sep-22 19:10 158 2 gusting 5 16.1
2019-Sep-22 19:00 165 3 gusting 6 16.1
2019-Sep-22 18:50 167 2 gusting 6 16.1
2019-Sep-22 18:40 166 2 gusting 6 16.1
2019-Sep-22 18:30 172 0 gusting 6 16.1
2019-Sep-22 18:20 182 0 gusting 3 16.1
2019-Sep-22 18:10 183 0 gusting 3 16.1
2019-Sep-22 18:00 184 2 gusting 3 16.1
2019-Sep-22 17:50 186 2 gusting 3 16.1
2019-Sep-22 17:40 186 2 gusting 5 16.7
2019-Sep-22 17:30 181 0 gusting 3 16.7
2019-Sep-22 17:20 216 0 gusting 3 16.7
2019-Sep-22 17:10 214 2 gusting 3 16.7
2019-Sep-22 17:00 211 0 gusting 5 16.7
2019-Sep-22 16:50 261 0 gusting 3 16.7
2019-Sep-22 16:40 248 0 gusting 3 16.7
2019-Sep-22 16:30 264 2 gusting 3 16.7
2019-Sep-22 16:20 264 3 gusting 7 16.7
2019-Sep-22 16:10 257 3 gusting 11 16.7
2019-Sep-22 16:00 265 6 gusting 15 17.2
2019-Sep-22 15:50 259 6 gusting 13 17.2
2019-Sep-22 15:40 263 6 gusting 13 17.8
2019-Sep-22 15:30 260 8 gusting 16 18.3
2019-Sep-22 15:20 257 10 gusting 19 18.9
2019-Sep-22 15:10 254 13 gusting 26 20.0
2019-Sep-22 15:00 193 6 gusting 21 22.8
2019-Sep-22 14:50 171 5 gusting 13 23.3
2019-Sep-22 14:40 179 3 gusting 13 23.3
2019-Sep-22 14:30 173 6 gusting 11 23.3
2019-Sep-22 14:20 173 6 gusting 15 23.9
2019-Sep-22 14:10 172 8 gusting 18 23.9
2019-Sep-22 14:00 173 8 gusting 15 25.0
2019-Sep-22 13:50 173 7 gusting 19 25.6
2019-Sep-22 13:40 172 6 gusting 16 25.6
2019-Sep-22 13:30 163 6 gusting 13 25.6
2019-Sep-22 13:20 163 5 gusting 13 25.6
2019-Sep-22 13:10 169 6 gusting 16 25.6
2019-Sep-22 13:00 168 7 gusting 19 25.6
2019-Sep-22 12:50 168 5 gusting 15 25.0
2019-Sep-22 12:40 167 3 gusting 10 25.0
2019-Sep-22 12:30 170 5 gusting 15 24.4
2019-Sep-22 12:20 168 3 gusting 10 24.4
2019-Sep-22 12:10 161 5 gusting 13 24.4
2019-Sep-22 12:00 169 3 gusting 13 24.4
2019-Sep-22 11:50 173 3 gusting 11 24.4
2019-Sep-22 11:40 179 5 gusting 10 24.4
2019-Sep-22 11:30 172 3 gusting 10 24.4
2019-Sep-22 11:20 172 5 gusting 13 24.4
2019-Sep-22 11:10 168 3 gusting 13 25.0
2019-Sep-22 11:00 163 3 gusting 11 24.4
2019-Sep-22 10:50 141 3 gusting 8 23.9
2019-Sep-22 10:40 145 3 gusting 8 23.9
2019-Sep-22 10:30 157 2 gusting 6 23.3
2019-Sep-22 10:20 139 2 gusting 7 23.3
2019-Sep-22 10:10 176 3 gusting 8 22.8
2019-Sep-22 10:00 165 3 gusting 10 22.8
2019-Sep-22 09:50 169 3 gusting 11 23.3
2019-Sep-22 09:40 168 2 gusting 7 22.2
2019-Sep-22 09:30 174 3 gusting 7 21.7
2019-Sep-22 09:20 160 3 gusting 8 21.7
2019-Sep-22 09:10 161 3 gusting 6 21.1
2019-Sep-22 09:00 173 3 gusting 7 20.6
2019-Sep-22 08:50 152 3 gusting 10 20.6
2019-Sep-22 08:40 169 3 gusting 10 20.6
2019-Sep-22 08:30 157 3 gusting 11 20.6
2019-Sep-22 08:20 159 3 gusting 7 20.0
2019-Sep-22 08:10 153 3 gusting 8 19.4
2019-Sep-22 08:00 138 3 gusting 7 18.9
2019-Sep-22 07:50 140 2 gusting 7 18.3
2019-Sep-22 07:40 132 2 gusting 6 17.8
2019-Sep-22 07:30 133 2 gusting 5 17.2
2019-Sep-22 07:20 132 2 gusting 6 17.2
2019-Sep-22 07:10 127 3 gusting 8 16.7
2019-Sep-22 07:00 138 3 gusting 6 16.7
2019-Sep-22 06:50 130 3 gusting 8 16.1
2019-Sep-22 06:40 132 2 gusting 8 16.1
2019-Sep-22 06:30 124 3 gusting 8 16.1
2019-Sep-22 06:20 128 2 gusting 6 15.6
2019-Sep-22 06:10 129 3 gusting 7 15.6
2019-Sep-22 06:00 120 3 gusting 7 15.6
2019-Sep-22 05:50 127 2 gusting 7 15.6
2019-Sep-22 05:40 131 3 gusting 7 16.1
2019-Sep-22 05:30 127 3 gusting 8 16.1
2019-Sep-22 05:20 125 2 gusting 6 16.1
2019-Sep-22 05:10 120 2 gusting 6 16.1
2019-Sep-22 05:00 117 0 gusting 3 16.1
2019-Sep-22 04:50 131 0 gusting 5 16.1
2019-Sep-22 04:40 131 0 gusting 6 16.1
2019-Sep-22 04:30 121 2 gusting 7 16.1
2019-Sep-22 04:20 124 3 gusting 7 16.1
2019-Sep-22 04:10 124 3 gusting 7 16.7
2019-Sep-22 04:00 130 2 gusting 7 16.7
2019-Sep-22 03:50 138 2 gusting 7 16.7
2019-Sep-22 03:40 126 2 gusting 7 16.7
2019-Sep-22 03:30 140 3 gusting 7 16.7
2019-Sep-22 03:20 123 2 gusting 6 16.1
2019-Sep-22 03:10 129 0 gusting 3 16.1
2019-Sep-22 03:00 16.1
2019-Sep-22 02:50 119 0 gusting 3 16.1
2019-Sep-22 02:40 116 0 gusting 6 16.1
2019-Sep-22 02:30 125 0 gusting 3 16.1
2019-Sep-22 02:20 126 0 gusting 6 16.1
2019-Sep-22 02:10 15.6
2019-Sep-22 02:00 113 0 gusting 2 15.6
2019-Sep-22 01:50 121 0 gusting 3 15.6
2019-Sep-22 01:40 121 0 gusting 3 15.6
2019-Sep-22 01:30 119 0 gusting 3 15.6
2019-Sep-22 01:20 125 0 gusting 3 15.6
2019-Sep-22 01:10 130 0 gusting 3 15.6
2019-Sep-22 01:00 122 2 gusting 6 15.6
2019-Sep-22 00:50 121 0 gusting 5 15.6
2019-Sep-22 00:40 114 0 gusting 3 15.6
2019-Sep-22 00:30 119 0 gusting 3 15.6
2019-Sep-22 00:20 116 0 gusting 3 15.6
2019-Sep-22 00:10 15.6
2019-Sep-22 00:00 15.6
2019-Sep-21 23:50 15.6
2019-Sep-21 23:40 111 0 gusting 3 15.6
2019-Sep-21 23:30 15.6
2019-Sep-21 23:20 116 0 gusting 2 16.1
2019-Sep-21 23:10 16.1
2019-Sep-21 23:00 120 0 gusting 3 16.1
2019-Sep-21 22:50 117 0 gusting 3 16.1
2019-Sep-21 22:40 114 0 gusting 3 16.1
2019-Sep-21 22:30 105 0 gusting 3 16.1
2019-Sep-21 22:20 108 0 gusting 3 16.1
2019-Sep-21 22:10 16.1
2019-Sep-21 22:00 121 0 gusting 3 16.1
2019-Sep-21 21:50 127 2 gusting 3 16.1
2019-Sep-21 21:40 119 0 gusting 3 15.6
2019-Sep-21 21:30 132 0 gusting 3 15.6
2019-Sep-21 21:20 109 0 gusting 3 15.6
2019-Sep-21 21:10 094 0 gusting 3 15.0
2019-Sep-21 21:00 084 0 gusting 2 15.0
2019-Sep-21 20:50 15.0
2019-Sep-21 20:40 077 0 gusting 2 15.0
2019-Sep-21 20:30 071 0 gusting 3 15.0
2019-Sep-21 20:20 15.0
2019-Sep-21 20:10 068 0 gusting 2 15.0
2019-Sep-21 20:00 080 0 gusting 3 15.0
2019-Sep-21 19:50 15.6
2019-Sep-21 19:40 096 0 gusting 3 15.6
2019-Sep-21 19:30 090 0 gusting 3 15.6
2019-Sep-21 19:20 096 0 gusting 3 15.6
2019-Sep-21 19:10 097 0 gusting 3 15.6
2019-Sep-21 19:00 106 0 gusting 3 16.1
2019-Sep-21 18:50 107 0 gusting 3 16.1
2019-Sep-21 18:40 104 0 gusting 3 16.7
2019-Sep-21 18:30 094 0 gusting 5 16.7
2019-Sep-21 18:20 105 0 gusting 3 17.2
2019-Sep-21 18:10 099 0 gusting 6 17.2
2019-Sep-21 18:00 100 0 gusting 6 17.8
2019-Sep-21 17:50 116 0 gusting 3 17.8
2019-Sep-21 17:40 112 2 gusting 5 18.3
2019-Sep-21 17:30 121 2 gusting 5 18.3
2019-Sep-21 17:20 128 2 gusting 8 18.9
2019-Sep-21 17:10 116 2 gusting 8 18.9
2019-Sep-21 17:00 121 2 gusting 7 19.4
2019-Sep-21 16:50 158 3 gusting 8 19.4
2019-Sep-21 16:40 146 3 gusting 10 19.4
2019-Sep-21 16:30 135 3 gusting 11 19.4
2019-Sep-21 16:20 145 5 gusting 13 19.4
2019-Sep-21 16:10 155 3 gusting 13 20.0
2019-Sep-21 16:00 133 3 gusting 10 20.0
2019-Sep-21 15:50 139 5 gusting 16 20.0
2019-Sep-21 15:40 140 3 gusting 13 20.6
2019-Sep-21 15:30 129 3 gusting 11 20.6
2019-Sep-21 15:20 120 3 gusting 13 21.1
2019-Sep-21 15:10 114 3 gusting 13 21.7
2019-Sep-21 15:00 133 3 gusting 13 21.7
2019-Sep-21 14:50 110 3 gusting 13 21.7
2019-Sep-21 14:40 113 3 gusting 13 21.7
2019-Sep-21 14:30 094 3 gusting 13 22.2
2019-Sep-21 14:20 102 5 gusting 13 22.8
2019-Sep-21 14:10 113 3 gusting 13 23.3
2019-Sep-21 14:00 120 3 gusting 13 23.3
2019-Sep-21 13:50 122 3 gusting 13 23.3
2019-Sep-21 13:40 129 5 gusting 13 23.3
2019-Sep-21 13:30 127 3 gusting 13 23.3
2019-Sep-21 13:20 117 5 gusting 15 23.3
2019-Sep-21 13:10 097 3 gusting 13 23.3
2019-Sep-21 13:00 135 3 gusting 10 23.3
2019-Sep-21 12:50 123 3 gusting 11 23.3
2019-Sep-21 12:40 123 5 gusting 13 22.8
2019-Sep-21 12:30 132 5 gusting 15 22.8
2019-Sep-21 12:20 131 3 gusting 11 22.8
2019-Sep-21 12:10 119 3 gusting 13 22.8
2019-Sep-21 12:00 123 3 gusting 11 22.8
2019-Sep-21 11:50 134 5 gusting 13 22.2
2019-Sep-21 11:40 116 5 gusting 13 22.2
2019-Sep-21 11:30 131 5 gusting 11 22.2
2019-Sep-21 11:20 111 3 gusting 13 22.2
2019-Sep-21 11:10 139 5 gusting 13 21.7
2019-Sep-21 11:00 143 3 gusting 11 21.7
2019-Sep-21 10:50 110 3 gusting 13 21.7
2019-Sep-21 10:40 127 3 gusting 11 21.1
2019-Sep-21 10:30 106 5 gusting 13 21.1
2019-Sep-21 10:20 132 3 gusting 13 20.6
2019-Sep-21 10:10 134 5 gusting 13 20.6
2019-Sep-21 10:00 135 5 gusting 13 20.6
2019-Sep-21 09:50 123 3 gusting 13 20.0
2019-Sep-21 09:40 127 3 gusting 20 20.0
2019-Sep-21 09:30 137 5 gusting 13 19.4
2019-Sep-21 09:20 133 3 gusting 13 19.4
2019-Sep-21 09:10 130 3 gusting 13 19.4
2019-Sep-21 09:00 133 6 gusting 15 18.3
2019-Sep-21 08:50 139 5 gusting 18 18.3
2019-Sep-21 08:40 125 3 gusting 13 17.8
2019-Sep-21 08:30 131 5 gusting 13 17.8
2019-Sep-21 08:20 134 3 gusting 13 17.2
2019-Sep-21 08:10 134 3 gusting 10 17.2
2019-Sep-21 08:00 129 3 gusting 11 16.7
2019-Sep-21 07:50 111 2 gusting 8 15.6
2019-Sep-21 07:40 133 3 gusting 8 14.4
2019-Sep-21 07:30 130 2 gusting 8 13.9
2019-Sep-21 07:20 135 2 gusting 8 13.3
2019-Sep-21 07:10 139 0 gusting 3 12.8
2019-Sep-21 07:00 110 0 gusting 3 12.2
2019-Sep-21 06:50 079 0 gusting 5 12.2
2019-Sep-21 06:40 091 2 gusting 8 11.7
2019-Sep-21 06:30 093 2 gusting 7 11.7
2019-Sep-21 06:20 086 0 gusting 7 11.7
2019-Sep-21 06:10 086 0 gusting 3 11.7
2019-Sep-21 06:00 090 2 gusting 6 11.7
2019-Sep-21 05:50 085 2 gusting 6 11.7
2019-Sep-21 05:40 088 2 gusting 6 11.7
2019-Sep-21 05:30 099 2 gusting 3 11.7
2019-Sep-21 05:20 090 2 gusting 8 11.7
2019-Sep-21 05:10 096 2 gusting 3 11.7
2019-Sep-21 05:00 088 2 gusting 8 11.7
2019-Sep-21 04:50 084 0 gusting 3 11.7
2019-Sep-21 04:40 103 0 gusting 3 11.7
2019-Sep-21 04:30 094 2 gusting 7 11.7
2019-Sep-21 04:20 099 2 gusting 5 11.7
2019-Sep-21 04:10 091 2 gusting 7 11.7
2019-Sep-21 04:00 087 2 gusting 6 11.7
2019-Sep-21 03:50 091 0 gusting 3 11.7
2019-Sep-21 03:40 083 0 gusting 5 11.7
2019-Sep-21 03:30 096 0 gusting 5 11.7
2019-Sep-21 03:20 086 0 gusting 3 11.1
2019-Sep-21 03:10 091 0 gusting 3 11.1
2019-Sep-21 03:00 077 0 gusting 3 11.1